Mina, Pennsylvania
Current Conditions -  °F | °C
As of 10:56 PM on Saturday 20 Dec 2014 (Local Time) from KELZ Reporting Station
Overcast Overcast  
Wind Chill: 17°   Ceiling: 900
Heat Index: 24°   Visibility: 10mi
Dew Point: 19°   Wind: 6mph
Humidity: 81%   Direction: 300°WNW
Pressure: 30.2"   Gusts: NA
Location:  41.7605°N, 77.9728°W
Report Text: KELZ 210356Z AUTO 30005KT 10SM OVC009 M04/M07 A3020 RMK AO2 SLP259 T10441072
Loading
Personal Weather Stations






























Interactive Weather Map New forecast layout! Learn more

10-Day Weather Forecast

Advertisements
Track Severe Weather on mobile